sensor_id;sensor_type;location;lat;lon;timestamp;P1;durP1;ratioP1;P2;durP2;ratioP2
14088;SDS011;7120;52.890;6.040;2022-11-14T00:02:20;51.37;;;28.50;;
14088;SDS011;7120;52.890;6.040;2022-11-14T00:04:46;47.33;;;27.83;;
14088;SDS011;7120;52.890;6.040;2022-11-14T00:07:12;51.60;;;29.13;;
14088;SDS011;7120;52.890;6.040;2022-11-14T00:09:38;52.97;;;29.00;;
14088;SDS011;7120;52.890;6.040;2022-11-14T00:12:04;50.13;;;28.03;;
14088;SDS011;7120;52.890;6.040;2022-11-14T00:14:30;53.90;;;28.70;;
14088;SDS011;7120;52.890;6.040;2022-11-14T00:16:55;54.60;;;29.27;;
14088;SDS011;7120;52.890;6.040;2022-11-14T00:19:21;53.83;;;29.20;;
14088;SDS011;7120;52.890;6.040;2022-11-14T00:21:46;52.03;;;30.00;;
14088;SDS011;7120;52.890;6.040;2022-11-14T00:24:13;54.67;;;28.87;;
14088;SDS011;7120;52.890;6.040;2022-11-14T00:26:38;54.80;;;30.07;;
14088;SDS011;7120;52.890;6.040;2022-11-14T00:29:03;52.10;;;29.23;;
14088;SDS011;7120;52.890;6.040;2022-11-14T00:31:29;57.50;;;29.43;;
14088;SDS011;7120;52.890;6.040;2022-11-14T00:33:54;58.23;;;29.00;;
14088;SDS011;7120;52.890;6.040;2022-11-14T00:36:20;57.20;;;30.57;;
14088;SDS011;7120;52.890;6.040;2022-11-14T00:38:45;53.33;;;29.77;;
14088;SDS011;7120;52.890;6.040;2022-11-14T00:41:10;48.60;;;29.27;;
14088;SDS011;7120;52.890;6.040;2022-11-14T00:43:36;54.07;;;27.97;;
14088;SDS011;7120;52.890;6.040;2022-11-14T00:46:02;55.77;;;29.90;;
14088;SDS011;7120;52.890;6.040;2022-11-14T00:48:28;49.60;;;27.63;;
14088;SDS011;7120;52.890;6.040;2022-11-14T00:50:53;54.47;;;28.50;;
14088;SDS011;7120;52.890;6.040;2022-11-14T00:53:19;56.80;;;28.47;;
14088;SDS011;7120;52.890;6.040;2022-11-14T00:55:44;51.83;;;27.77;;
14088;SDS011;7120;52.890;6.040;2022-11-14T00:58:09;54.47;;;29.53;;
14088;SDS011;7120;52.890;6.040;2022-11-14T01:00:36;48.00;;;28.17;;
14088;SDS011;7120;52.890;6.040;2022-11-14T01:03:02;51.50;;;28.27;;
14088;SDS011;7120;52.890;6.040;2022-11-14T01:05:28;47.50;;;27.80;;
14088;SDS011;7120;52.890;6.040;2022-11-14T01:07:54;50.30;;;27.90;;
14088;SDS011;7120;52.890;6.040;2022-11-14T01:10:21;51.47;;;28.63;;
14088;SDS011;7120;52.890;6.040;2022-11-14T01:12:47;50.23;;;28.57;;
14088;SDS011;7120;52.890;6.040;2022-11-14T01:15:12;50.50;;;27.83;;
14088;SDS011;7120;52.890;6.040;2022-11-14T01:17:38;49.83;;;29.57;;
14088;SDS011;7120;52.890;6.040;2022-11-14T01:20:04;53.37;;;29.70;;
14088;SDS011;7120;52.890;6.040;2022-11-14T01:22:30;51.73;;;29.57;;
14088;SDS011;7120;52.890;6.040;2022-11-14T01:24:55;52.50;;;29.43;;
14088;SDS011;7120;52.890;6.040;2022-11-14T01:27:22;51.03;;;29.80;;
14088;SDS011;7120;52.890;6.040;2022-11-14T01:29:50;49.33;;;29.23;;
14088;SDS011;7120;52.890;6.040;2022-11-14T01:32:15;45.30;;;28.70;;
14088;SDS011;7120;52.890;6.040;2022-11-14T01:34:41;48.17;;;29.23;;
14088;SDS011;7120;52.890;6.040;2022-11-14T01:37:06;52.60;;;29.17;;
14088;SDS011;7120;52.890;6.040;2022-11-14T01:39:31;48.77;;;30.13;;
14088;SDS011;7120;52.890;6.040;2022-11-14T01:41:57;46.27;;;30.03;;
14088;SDS011;7120;52.890;6.040;2022-11-14T01:47:12;47.43;;;28.67;;
14088;SDS011;7120;52.890;6.040;2022-11-14T01:50:01;48.50;;;30.43;;
14088;SDS011;7120;52.890;6.040;2022-11-14T01:52:33;45.80;;;29.80;;
14088;SDS011;7120;52.890;6.040;2022-11-14T01:55:05;44.40;;;29.37;;
14088;SDS011;7120;52.890;6.040;2022-11-14T01:57:34;46.00;;;30.67;;
14088;SDS011;7120;52.890;6.040;2022-11-14T02:00:07;49.00;;;30.50;;
14088;SDS011;7120;52.890;6.040;2022-11-14T02:02:36;52.30;;;31.07;;
14088;SDS011;7120;52.890;6.040;2022-11-14T02:05:03;53.87;;;31.97;;
14088;SDS011;7120;52.890;6.040;2022-11-14T02:07:31;56.17;;;31.83;;
14088;SDS011;7120;52.890;6.040;2022-11-14T02:10:00;55.50;;;32.53;;
14088;SDS011;7120;52.890;6.040;2022-11-14T02:12:29;52.37;;;32.50;;
14088;SDS011;7120;52.890;6.040;2022-11-14T02:14:55;57.30;;;32.80;;
14088;SDS011;7120;52.890;6.040;2022-11-14T02:17:23;58.80;;;33.67;;
14088;SDS011;7120;52.890;6.040;2022-11-14T02:19:51;57.77;;;34.93;;
14088;SDS011;7120;52.890;6.040;2022-11-14T02:22:17;62.47;;;35.80;;
14088;SDS011;7120;52.890;6.040;2022-11-14T02:24:43;57.13;;;33.23;;
14088;SDS011;7120;52.890;6.040;2022-11-14T02:27:09;54.97;;;32.07;;
14088;SDS011;7120;52.890;6.040;2022-11-14T02:29:36;64.17;;;35.33;;
14088;SDS011;7120;52.890;6.040;2022-11-14T02:32:02;60.73;;;33.43;;
14088;SDS011;7120;52.890;6.040;2022-11-14T02:34:28;63.60;;;35.33;;
14088;SDS011;7120;52.890;6.040;2022-11-14T02:36:54;58.97;;;33.60;;
14088;SDS011;7120;52.890;6.040;2022-11-14T02:39:19;56.53;;;31.97;;
14088;SDS011;7120;52.890;6.040;2022-11-14T02:41:45;63.10;;;34.07;;
14088;SDS011;7120;52.890;6.040;2022-11-14T02:44:10;62.23;;;33.07;;
14088;SDS011;7120;52.890;6.040;2022-11-14T02:46:36;74.13;;;34.97;;
14088;SDS011;7120;52.890;6.040;2022-11-14T02:49:01;60.93;;;33.73;;
14088;SDS011;7120;52.890;6.040;2022-11-14T02:51:27;59.00;;;30.97;;
14088;SDS011;7120;52.890;6.040;2022-11-14T02:53:52;65.20;;;34.27;;
14088;SDS011;7120;52.890;6.040;2022-11-14T02:56:18;64.27;;;35.33;;
14088;SDS011;7120;52.890;6.040;2022-11-14T02:58:43;67.10;;;35.83;;
14088;SDS011;7120;52.890;6.040;2022-11-14T03:01:10;75.63;;;36.77;;
14088;SDS011;7120;52.890;6.040;2022-11-14T03:03:36;72.70;;;36.57;;
14088;SDS011;7120;52.890;6.040;2022-11-14T03:06:02;81.43;;;37.63;;
14088;SDS011;7120;52.890;6.040;2022-11-14T03:08:28;68.97;;;35.10;;
14088;SDS011;7120;52.890;6.040;2022-11-14T03:10:53;75.17;;;39.07;;
14088;SDS011;7120;52.890;6.040;2022-11-14T03:13:20;78.60;;;39.30;;
14088;SDS011;7120;52.890;6.040;2022-11-14T03:15:46;74.90;;;38.83;;
14088;SDS011;7120;52.890;6.040;2022-11-14T03:18:12;81.77;;;39.90;;
14088;SDS011;7120;52.890;6.040;2022-11-14T03:20:38;78.70;;;39.27;;
14088;SDS011;7120;52.890;6.040;2022-11-14T03:23:04;78.23;;;39.17;;
14088;SDS011;7120;52.890;6.040;2022-11-14T03:25:29;77.47;;;39.57;;
14088;SDS011;7120;52.890;6.040;2022-11-14T03:27:56;74.60;;;40.10;;
14088;SDS011;7120;52.890;6.040;2022-11-14T03:30:21;71.53;;;38.50;;
14088;SDS011;7120;52.890;6.040;2022-11-14T03:32:47;69.33;;;38.80;;
14088;SDS011;7120;52.890;6.040;2022-11-14T03:35:13;70.80;;;38.13;;
14088;SDS011;7120;52.890;6.040;2022-11-14T03:37:39;73.20;;;40.30;;
14088;SDS011;7120;52.890;6.040;2022-11-14T03:40:06;73.47;;;40.27;;
14088;SDS011;7120;52.890;6.040;2022-11-14T03:42:32;70.67;;;39.27;;
14088;SDS011;7120;52.890;6.040;2022-11-14T03:44:58;74.23;;;40.63;;
14088;SDS011;7120;52.890;6.040;2022-11-14T03:47:24;70.17;;;39.40;;
14088;SDS011;7120;52.890;6.040;2022-11-14T03:49:49;72.17;;;40.73;;
14088;SDS011;7120;52.890;6.040;2022-11-14T03:52:15;71.27;;;40.97;;
14088;SDS011;7120;52.890;6.040;2022-11-14T03:54:40;69.70;;;38.53;;
14088;SDS011;7120;52.890;6.040;2022-11-14T03:57:05;72.27;;;40.23;;
14088;SDS011;7120;52.890;6.040;2022-11-14T03:59:31;69.13;;;39.10;;
14088;SDS011;7120;52.890;6.040;2022-11-14T04:01:56;69.20;;;40.57;;
14088;SDS011;7120;52.890;6.040;2022-11-14T04:04:22;66.33;;;37.90;;
14088;SDS011;7120;52.890;6.040;2022-11-14T04:06:47;76.90;;;40.30;;
14088;SDS011;7120;52.890;6.040;2022-11-14T04:09:13;74.57;;;40.27;;
14088;SDS011;7120;52.890;6.040;2022-11-14T04:11:38;73.83;;;39.47;;
14088;SDS011;7120;52.890;6.040;2022-11-14T04:14:03;74.57;;;41.60;;
14088;SDS011;7120;52.890;6.040;2022-11-14T04:16:30;71.70;;;38.70;;
14088;SDS011;7120;52.890;6.040;2022-11-14T04:18:59;71.73;;;39.77;;
14088;SDS011;7120;52.890;6.040;2022-11-14T04:21:25;76.13;;;42.47;;
14088;SDS011;7120;52.890;6.040;2022-11-14T04:23:52;73.73;;;40.63;;
14088;SDS011;7120;52.890;6.040;2022-11-14T04:26:23;77.33;;;42.17;;
14088;SDS011;7120;52.890;6.040;2022-11-14T04:28:48;80.90;;;40.47;;
14088;SDS011;7120;52.890;6.040;2022-11-14T04:31:13;75.60;;;41.03;;
14088;SDS011;7120;52.890;6.040;2022-11-14T04:33:40;73.87;;;40.30;;
14088;SDS011;7120;52.890;6.040;2022-11-14T04:36:05;77.47;;;41.70;;
14088;SDS011;7120;52.890;6.040;2022-11-14T04:38:31;89.10;;;43.90;;
14088;SDS011;7120;52.890;6.040;2022-11-14T04:40:56;81.00;;;42.90;;
14088;SDS011;7120;52.890;6.040;2022-11-14T04:43:22;80.67;;;40.30;;
14088;SDS011;7120;52.890;6.040;2022-11-14T04:45:48;83.20;;;44.07;;
14088;SDS011;7120;52.890;6.040;2022-11-14T04:48:13;73.77;;;38.90;;
14088;SDS011;7120;52.890;6.040;2022-11-14T04:50:39;83.90;;;42.90;;
14088;SDS011;7120;52.890;6.040;2022-11-14T04:53:25;79.77;;;42.40;;
14088;SDS011;7120;52.890;6.040;2022-11-14T04:55:51;80.33;;;41.63;;
14088;SDS011;7120;52.890;6.040;2022-11-14T04:58:17;92.20;;;42.90;;
14088;SDS011;7120;52.890;6.040;2022-11-14T05:00:42;83.73;;;44.77;;
14088;SDS011;7120;52.890;6.040;2022-11-14T05:03:07;80.90;;;41.70;;
14088;SDS011;7120;52.890;6.040;2022-11-14T05:05:33;88.50;;;43.87;;
14088;SDS011;7120;52.890;6.040;2022-11-14T05:07:58;84.67;;;42.60;;
14088;SDS011;7120;52.890;6.040;2022-11-14T05:10:23;87.83;;;43.67;;
14088;SDS011;7120;52.890;6.040;2022-11-14T05:12:51;91.93;;;42.07;;
14088;SDS011;7120;52.890;6.040;2022-11-14T05:15:17;93.43;;;45.60;;
14088;SDS011;7120;52.890;6.040;2022-11-14T05:17:43;92.30;;;44.23;;
14088;SDS011;7120;52.890;6.040;2022-11-14T05:20:08;90.37;;;44.13;;
14088;SDS011;7120;52.890;6.040;2022-11-14T05:22:34;92.23;;;45.07;;
14088;SDS011;7120;52.890;6.040;2022-11-14T05:24:59;95.50;;;43.73;;
14088;SDS011;7120;52.890;6.040;2022-11-14T05:27:25;95.73;;;45.63;;
14088;SDS011;7120;52.890;6.040;2022-11-14T05:29:50;95.67;;;44.43;;
14088;SDS011;7120;52.890;6.040;2022-11-14T05:32:16;100.20;;;47.23;;
14088;SDS011;7120;52.890;6.040;2022-11-14T05:34:41;92.20;;;46.50;;
14088;SDS011;7120;52.890;6.040;2022-11-14T05:37:06;96.30;;;44.77;;
14088;SDS011;7120;52.890;6.040;2022-11-14T05:39:35;92.77;;;46.57;;
14088;SDS011;7120;52.890;6.040;2022-11-14T05:42:02;96.43;;;46.87;;
14088;SDS011;7120;52.890;6.040;2022-11-14T05:44:27;92.73;;;47.13;;
14088;SDS011;7120;52.890;6.040;2022-11-14T05:46:53;87.93;;;46.13;;
14088;SDS011;7120;52.890;6.040;2022-11-14T05:49:18;96.23;;;48.00;;
14088;SDS011;7120;52.890;6.040;2022-11-14T05:51:43;95.17;;;45.67;;
14088;SDS011;7120;52.890;6.040;2022-11-14T05:54:10;88.07;;;46.33;;
14088;SDS011;7120;52.890;6.040;2022-11-14T05:56:36;95.97;;;46.20;;
14088;SDS011;7120;52.890;6.040;2022-11-14T05:59:02;83.40;;;44.50;;
14088;SDS011;7120;52.890;6.040;2022-11-14T06:01:27;87.53;;;44.97;;
14088;SDS011;7120;52.890;6.040;2022-11-14T06:03:53;82.03;;;44.00;;
14088;SDS011;7120;52.890;6.040;2022-11-14T06:06:19;88.67;;;44.27;;
14088;SDS011;7120;52.890;6.040;2022-11-14T06:08:45;78.97;;;42.17;;
14088;SDS011;7120;52.890;6.040;2022-11-14T06:11:12;86.23;;;44.63;;
14088;SDS011;7120;52.890;6.040;2022-11-14T06:13:41;92.53;;;50.10;;
14088;SDS011;7120;52.890;6.040;2022-11-14T06:16:09;78.77;;;44.20;;
14088;SDS011;7120;52.890;6.040;2022-11-14T06:18:38;83.93;;;46.37;;
14088;SDS011;7120;52.890;6.040;2022-11-14T06:21:13;81.83;;;44.73;;
14088;SDS011;7120;52.890;6.040;2022-11-14T06:23:41;84.27;;;42.37;;
14088;SDS011;7120;52.890;6.040;2022-11-14T06:26:27;76.50;;;43.03;;
14088;SDS011;7120;52.890;6.040;2022-11-14T06:28:54;79.43;;;43.70;;
14088;SDS011;7120;52.890;6.040;2022-11-14T06:31:21;75.97;;;43.70;;
14088;SDS011;7120;52.890;6.040;2022-11-14T06:33:48;82.87;;;43.97;;
14088;SDS011;7120;52.890;6.040;2022-11-14T06:36:14;76.17;;;42.43;;
14088;SDS011;7120;52.890;6.040;2022-11-14T06:38:40;77.20;;;43.07;;
14088;SDS011;7120;52.890;6.040;2022-11-14T06:41:16;73.40;;;43.10;;
14088;SDS011;7120;52.890;6.040;2022-11-14T06:43:44;79.60;;;43.03;;
14088;SDS011;7120;52.890;6.040;2022-11-14T06:46:15;77.70;;;41.40;;
14088;SDS011;7120;52.890;6.040;2022-11-14T06:48:43;85.00;;;42.67;;
14088;SDS011;7120;52.890;6.040;2022-11-14T06:51:10;76.10;;;42.30;;
14088;SDS011;7120;52.890;6.040;2022-11-14T06:53:36;79.67;;;42.43;;
14088;SDS011;7120;52.890;6.040;2022-11-14T06:56:04;80.37;;;44.63;;
14088;SDS011;7120;52.890;6.040;2022-11-14T06:58:35;82.63;;;43.60;;
14088;SDS011;7120;52.890;6.040;2022-11-14T07:01:13;77.77;;;42.73;;
14088;SDS011;7120;52.890;6.040;2022-11-14T07:03:40;74.77;;;42.13;;
14088;SDS011;7120;52.890;6.040;2022-11-14T07:06:07;78.17;;;44.23;;
14088;SDS011;7120;52.890;6.040;2022-11-14T07:08:34;79.40;;;42.10;;
14088;SDS011;7120;52.890;6.040;2022-11-14T07:11:00;74.13;;;41.07;;
14088;SDS011;7120;52.890;6.040;2022-11-14T07:13:29;78.03;;;40.87;;
14088;SDS011;7120;52.890;6.040;2022-11-14T07:15:56;76.07;;;39.17;;
14088;SDS011;7120;52.890;6.040;2022-11-14T07:18:21;74.13;;;40.67;;
14088;SDS011;7120;52.890;6.040;2022-11-14T07:20:47;73.07;;;41.80;;
14088;SDS011;7120;52.890;6.040;2022-11-14T07:23:13;73.30;;;40.60;;
14088;SDS011;7120;52.890;6.040;2022-11-14T07:25:39;75.90;;;41.83;;
14088;SDS011;7120;52.890;6.040;2022-11-14T07:28:05;76.43;;;40.20;;
14088;SDS011;7120;52.890;6.040;2022-11-14T07:30:32;70.30;;;40.17;;
14088;SDS011;7120;52.890;6.040;2022-11-14T07:32:58;77.53;;;40.07;;
14088;SDS011;7120;52.890;6.040;2022-11-14T07:35:24;76.40;;;39.73;;
14088;SDS011;7120;52.890;6.040;2022-11-14T07:37:50;72.87;;;40.67;;
14088;SDS011;7120;52.890;6.040;2022-11-14T07:40:16;69.93;;;38.97;;
14088;SDS011;7120;52.890;6.040;2022-11-14T07:42:42;75.77;;;40.47;;
14088;SDS011;7120;52.890;6.040;2022-11-14T07:45:08;71.17;;;40.43;;
14088;SDS011;7120;52.890;6.040;2022-11-14T07:47:34;67.60;;;38.40;;
14088;SDS011;7120;52.890;6.040;2022-11-14T07:49:59;71.77;;;38.23;;
14088;SDS011;7120;52.890;6.040;2022-11-14T07:52:25;72.47;;;39.97;;
14088;SDS011;7120;52.890;6.040;2022-11-14T07:54:50;68.17;;;38.67;;
14088;SDS011;7120;52.890;6.040;2022-11-14T07:57:15;72.90;;;38.60;;
14088;SDS011;7120;52.890;6.040;2022-11-14T07:59:41;72.83;;;39.43;;
14088;SDS011;7120;52.890;6.040;2022-11-14T08:02:09;72.30;;;40.10;;
14088;SDS011;7120;52.890;6.040;2022-11-14T08:04:37;77.43;;;40.27;;
14088;SDS011;7120;52.890;6.040;2022-11-14T08:07:02;76.57;;;41.57;;
14088;SDS011;7120;52.890;6.040;2022-11-14T08:09:27;69.67;;;39.30;;
14088;SDS011;7120;52.890;6.040;2022-11-14T08:11:53;74.47;;;41.63;;
14088;SDS011;7120;52.890;6.040;2022-11-14T08:14:20;77.83;;;42.30;;
14088;SDS011;7120;52.890;6.040;2022-11-14T08:16:46;72.20;;;40.93;;
14088;SDS011;7120;52.890;6.040;2022-11-14T08:19:11;87.90;;;45.93;;
14088;SDS011;7120;52.890;6.040;2022-11-14T08:21:40;75.70;;;41.50;;
14088;SDS011;7120;52.890;6.040;2022-11-14T08:24:05;75.93;;;43.40;;
14088;SDS011;7120;52.890;6.040;2022-11-14T08:26:31;71.33;;;41.03;;
14088;SDS011;7120;52.890;6.040;2022-11-14T08:28:56;68.93;;;40.60;;
14088;SDS011;7120;52.890;6.040;2022-11-14T08:31:22;67.27;;;39.63;;
14088;SDS011;7120;52.890;6.040;2022-11-14T08:33:48;69.10;;;39.70;;
14088;SDS011;7120;52.890;6.040;2022-11-14T08:36:16;62.07;;;36.67;;
14088;SDS011;7120;52.890;6.040;2022-11-14T08:38:41;62.03;;;37.67;;
14088;SDS011;7120;52.890;6.040;2022-11-14T08:41:08;61.10;;;35.87;;
14088;SDS011;7120;52.890;6.040;2022-11-14T08:43:33;63.23;;;38.43;;
14088;SDS011;7120;52.890;6.040;2022-11-14T08:45:59;58.30;;;37.77;;
14088;SDS011;7120;52.890;6.040;2022-11-14T08:48:25;55.03;;;35.23;;
14088;SDS011;7120;52.890;6.040;2022-11-14T08:50:51;60.57;;;35.97;;
14088;SDS011;7120;52.890;6.040;2022-11-14T08:53:17;56.23;;;35.80;;
14088;SDS011;7120;52.890;6.040;2022-11-14T08:55:46;54.27;;;34.37;;
14088;SDS011;7120;52.890;6.040;2022-11-14T08:58:13;51.17;;;33.83;;
14088;SDS011;7120;52.890;6.040;2022-11-14T09:00:39;56.17;;;34.87;;
14088;SDS011;7120;52.890;6.040;2022-11-14T09:03:08;56.27;;;34.67;;
14088;SDS011;7120;52.890;6.040;2022-11-14T09:05:34;50.40;;;34.13;;
14088;SDS011;7120;52.890;6.040;2022-11-14T09:08:00;52.57;;;34.90;;
14088;SDS011;7120;52.890;6.040;2022-11-14T09:10:26;51.70;;;34.43;;
14088;SDS011;7120;52.890;6.040;2022-11-14T09:12:56;49.23;;;33.43;;
14088;SDS011;7120;52.890;6.040;2022-11-14T09:15:22;47.67;;;33.53;;
14088;SDS011;7120;52.890;6.040;2022-11-14T09:17:51;47.87;;;32.63;;
14088;SDS011;7120;52.890;6.040;2022-11-14T09:20:17;49.50;;;33.00;;
14088;SDS011;7120;52.890;6.040;2022-11-14T09:22:43;47.53;;;33.60;;
14088;SDS011;7120;52.890;6.040;2022-11-14T09:25:09;48.77;;;33.97;;
14088;SDS011;7120;52.890;6.040;2022-11-14T09:27:36;48.03;;;33.23;;
14088;SDS011;7120;52.890;6.040;2022-11-14T09:30:02;45.20;;;32.33;;
14088;SDS011;7120;52.890;6.040;2022-11-14T09:32:28;50.93;;;36.37;;
14088;SDS011;7120;52.890;6.040;2022-11-14T09:34:53;48.17;;;32.07;;
14088;SDS011;7120;52.890;6.040;2022-11-14T09:37:19;47.67;;;33.47;;
14088;SDS011;7120;52.890;6.040;2022-11-14T09:39:45;48.67;;;33.60;;
14088;SDS011;7120;52.890;6.040;2022-11-14T09:42:34;48.73;;;32.97;;
14088;SDS011;7120;52.890;6.040;2022-11-14T09:45:10;50.20;;;32.80;;
14088;SDS011;7120;52.890;6.040;2022-11-14T09:47:41;47.23;;;32.17;;
14088;SDS011;7120;52.890;6.040;2022-11-14T09:52:42;43.13;;;30.53;;
14088;SDS011;7120;52.890;6.040;2022-11-14T09:55:17;46.53;;;31.53;;
14088;SDS011;7120;52.890;6.040;2022-11-14T09:57:45;45.07;;;30.90;;
14088;SDS011;7120;52.890;6.040;2022-11-14T10:00:21;42.97;;;31.13;;
14088;SDS011;7120;52.890;6.040;2022-11-14T10:05:38;43.00;;;29.40;;
14088;SDS011;7120;52.890;6.040;2022-11-14T10:08:21;43.83;;;30.83;;
14088;SDS011;7120;52.890;6.040;2022-11-14T10:16:39;39.47;;;29.23;;
14088;SDS011;7120;52.890;6.040;2022-11-14T10:19:34;40.10;;;28.17;;
14088;SDS011;7120;52.890;6.040;2022-11-14T10:30:38;39.23;;;27.20;;
14088;SDS011;7120;52.890;6.040;2022-11-14T10:35:42;36.43;;;27.20;;
14088;SDS011;7120;52.890;6.040;2022-11-14T10:41:00;37.33;;;28.30;;
14088;SDS011;7120;52.890;6.040;2022-11-14T10:43:39;35.67;;;26.87;;
14088;SDS011;7120;52.890;6.040;2022-11-14T10:48:55;36.97;;;25.63;;
14088;SDS011;7120;52.890;6.040;2022-11-14T10:54:20;31.70;;;24.00;;
14088;SDS011;7120;52.890;6.040;2022-11-14T10:56:53;32.67;;;24.40;;
14088;SDS011;7120;52.890;6.040;2022-11-14T10:59:19;31.70;;;23.03;;
14088;SDS011;7120;52.890;6.040;2022-11-14T11:09:30;30.53;;;24.00;;
14088;SDS011;7120;52.890;6.040;2022-11-14T11:12:16;29.10;;;23.20;;
14088;SDS011;7120;52.890;6.040;2022-11-14T11:17:57;30.80;;;23.80;;
14088;SDS011;7120;52.890;6.040;2022-11-14T11:20:34;27.17;;;22.90;;
14088;SDS011;7120;52.890;6.040;2022-11-14T11:25:33;28.07;;;22.03;;
14088;SDS011;7120;52.890;6.040;2022-11-14T11:28:10;30.07;;;23.67;;
14088;SDS011;7120;52.890;6.040;2022-11-14T11:30:39;26.10;;;22.20;;
14088;SDS011;7120;52.890;6.040;2022-11-14T11:35:45;28.47;;;23.30;;
14088;SDS011;7120;52.890;6.040;2022-11-14T11:38:13;38.47;;;34.23;;
14088;SDS011;7120;52.890;6.040;2022-11-14T11:40:42;32.63;;;25.97;;
14088;SDS011;7120;52.890;6.040;2022-11-14T11:43:12;28.63;;;24.20;;
14088;SDS011;7120;52.890;6.040;2022-11-14T11:45:46;28.80;;;24.40;;
14088;SDS011;7120;52.890;6.040;2022-11-14T11:48:18;27.57;;;23.87;;
14088;SDS011;7120;52.890;6.040;2022-11-14T11:50:45;26.23;;;22.57;;
14088;SDS011;7120;52.890;6.040;2022-11-14T11:53:16;28.93;;;25.00;;
14088;SDS011;7120;52.890;6.040;2022-11-14T11:55:50;27.60;;;23.93;;
14088;SDS011;7120;52.890;6.040;2022-11-14T12:01:10;31.50;;;26.67;;
14088;SDS011;7120;52.890;6.040;2022-11-14T12:03:37;31.33;;;26.00;;
14088;SDS011;7120;52.890;6.040;2022-11-14T12:06:14;29.40;;;25.27;;
14088;SDS011;7120;52.890;6.040;2022-11-14T12:08:58;29.00;;;25.10;;
14088;SDS011;7120;52.890;6.040;2022-11-14T12:11:25;28.90;;;24.57;;
14088;SDS011;7120;52.890;6.040;2022-11-14T12:22:08;26.90;;;23.17;;
14088;SDS011;7120;52.890;6.040;2022-11-14T12:30:20;25.97;;;22.67;;
14088;SDS011;7120;52.890;6.040;2022-11-14T12:35:29;26.27;;;22.93;;
14088;SDS011;7120;52.890;6.040;2022-11-14T12:37:57;26.23;;;23.43;;
14088;SDS011;7120;52.890;6.040;2022-11-14T12:40:25;28.47;;;24.17;;
14088;SDS011;7120;52.890;6.040;2022-11-14T12:42:53;27.90;;;23.67;;
14088;SDS011;7120;52.890;6.040;2022-11-14T12:50:50;30.27;;;25.43;;
14088;SDS011;7120;52.890;6.040;2022-11-14T12:58:31;29.07;;;23.10;;
14088;SDS011;7120;52.890;6.040;2022-11-14T13:18:26;29.67;;;23.13;;
14088;SDS011;7120;52.890;6.040;2022-11-14T13:21:17;24.87;;;21.23;;
14088;SDS011;7120;52.890;6.040;2022-11-14T13:24:05;23.40;;;20.43;;
14088;SDS011;7120;52.890;6.040;2022-11-14T13:28:56;23.87;;;19.97;;
14088;SDS011;7120;52.890;6.040;2022-11-14T13:40:17;25.53;;;20.70;;
14088;SDS011;7120;52.890;6.040;2022-11-14T13:42:53;26.67;;;21.67;;
14088;SDS011;7120;52.890;6.040;2022-11-14T13:45:39;26.23;;;20.53;;
14088;SDS011;7120;52.890;6.040;2022-11-14T13:50:49;24.67;;;19.70;;
14088;SDS011;7120;52.890;6.040;2022-11-14T13:53:25;25.53;;;20.00;;
14088;SDS011;7120;52.890;6.040;2022-11-14T13:55:55;22.53;;;19.53;;
14088;SDS011;7120;52.890;6.040;2022-11-14T14:01:19;20.23;;;17.67;;
14088;SDS011;7120;52.890;6.040;2022-11-14T14:04:10;22.20;;;19.07;;
14088;SDS011;7120;52.890;6.040;2022-11-14T14:09:35;23.80;;;18.73;;
14088;SDS011;7120;52.890;6.040;2022-11-14T14:27:40;24.20;;;17.53;;
14088;SDS011;7120;52.890;6.040;2022-11-14T14:30:21;24.53;;;19.57;;
14088;SDS011;7120;52.890;6.040;2022-11-14T14:35:35;23.57;;;19.03;;
14088;SDS011;7120;52.890;6.040;2022-11-14T14:38:04;22.40;;;18.60;;
14088;SDS011;7120;52.890;6.040;2022-11-14T14:40:36;21.13;;;18.63;;
14088;SDS011;7120;52.890;6.040;2022-11-14T14:43:04;22.67;;;19.17;;
14088;SDS011;7120;52.890;6.040;2022-11-14T14:45:31;23.70;;;19.47;;
14088;SDS011;7120;52.890;6.040;2022-11-14T14:48:12;23.47;;;19.80;;
14088;SDS011;7120;52.890;6.040;2022-11-14T14:50:50;20.77;;;17.60;;
14088;SDS011;7120;52.890;6.040;2022-11-14T14:53:27;23.83;;;18.63;;
14088;SDS011;7120;52.890;6.040;2022-11-14T14:56:04;21.27;;;17.63;;
14088;SDS011;7120;52.890;6.040;2022-11-14T14:58:41;25.03;;;19.87;;
14088;SDS011;7120;52.890;6.040;2022-11-14T15:01:20;23.70;;;19.37;;
14088;SDS011;7120;52.890;6.040;2022-11-14T15:04:04;24.00;;;19.10;;
14088;SDS011;7120;52.890;6.040;2022-11-14T15:06:33;23.00;;;19.10;;
14088;SDS011;7120;52.890;6.040;2022-11-14T15:09:07;23.07;;;18.20;;
14088;SDS011;7120;52.890;6.040;2022-11-14T15:11:35;23.13;;;18.47;;
14088;SDS011;7120;52.890;6.040;2022-11-14T15:14:04;22.13;;;18.23;;
14088;SDS011;7120;52.890;6.040;2022-11-14T15:16:30;21.27;;;18.10;;
14088;SDS011;7120;52.890;6.040;2022-11-14T15:18:57;21.87;;;18.07;;
14088;SDS011;7120;52.890;6.040;2022-11-14T15:21:27;24.20;;;19.27;;
14088;SDS011;7120;52.890;6.040;2022-11-14T15:26:37;25.23;;;20.17;;
14088;SDS011;7120;52.890;6.040;2022-11-14T15:29:22;21.60;;;18.80;;
14088;SDS011;7120;52.890;6.040;2022-11-14T15:31:56;21.33;;;18.63;;
14088;SDS011;7120;52.890;6.040;2022-11-14T15:34:33;24.30;;;17.20;;
14088;SDS011;7120;52.890;6.040;2022-11-14T15:37:05;22.30;;;18.93;;
14088;SDS011;7120;52.890;6.040;2022-11-14T15:39:34;19.73;;;17.13;;
14088;SDS011;7120;52.890;6.040;2022-11-14T15:42:13;17.57;;;15.77;;
14088;SDS011;7120;52.890;6.040;2022-11-14T15:44:48;17.70;;;15.90;;
14088;SDS011;7120;52.890;6.040;2022-11-14T15:49:59;16.83;;;15.03;;
14088;SDS011;7120;52.890;6.040;2022-11-14T15:52:33;19.03;;;17.13;;
14088;SDS011;7120;52.890;6.040;2022-11-14T15:55:00;21.23;;;17.63;;
14088;SDS011;7120;52.890;6.040;2022-11-14T15:57:26;17.20;;;15.40;;
14088;SDS011;7120;52.890;6.040;2022-11-14T15:59:52;17.07;;;15.27;;
14088;SDS011;7120;52.890;6.040;2022-11-14T16:02:18;17.80;;;15.90;;
14088;SDS011;7120;52.890;6.040;2022-11-14T16:04:52;17.77;;;15.23;;
14088;SDS011;7120;52.890;6.040;2022-11-14T16:07:18;16.70;;;14.83;;
14088;SDS011;7120;52.890;6.040;2022-11-14T16:09:44;16.87;;;15.17;;
14088;SDS011;7120;52.890;6.040;2022-11-14T16:12:09;16.83;;;15.03;;
14088;SDS011;7120;52.890;6.040;2022-11-14T16:14:36;18.13;;;16.00;;
14088;SDS011;7120;52.890;6.040;2022-11-14T16:17:01;17.10;;;15.30;;
14088;SDS011;7120;52.890;6.040;2022-11-14T16:19:27;17.53;;;15.43;;
14088;SDS011;7120;52.890;6.040;2022-11-14T16:21:52;17.27;;;15.47;;
14088;SDS011;7120;52.890;6.040;2022-11-14T16:24:19;16.43;;;14.73;;
14088;SDS011;7120;52.890;6.040;2022-11-14T16:26:46;17.73;;;15.83;;
14088;SDS011;7120;52.890;6.040;2022-11-14T16:29:12;17.53;;;15.57;;
14088;SDS011;7120;52.890;6.040;2022-11-14T16:31:38;16.37;;;14.67;;
14088;SDS011;7120;52.890;6.040;2022-11-14T16:34:04;15.47;;;13.90;;
14088;SDS011;7120;52.890;6.040;2022-11-14T16:36:30;17.87;;;15.97;;
14088;SDS011;7120;52.890;6.040;2022-11-14T16:38:59;16.80;;;15.10;;
14088;SDS011;7120;52.890;6.040;2022-11-14T16:41:26;16.93;;;15.23;;
14088;SDS011;7120;52.890;6.040;2022-11-14T16:43:55;16.17;;;14.57;;
14088;SDS011;7120;52.890;6.040;2022-11-14T16:46:21;16.13;;;14.43;;
14088;SDS011;7120;52.890;6.040;2022-11-14T16:48:47;16.47;;;14.77;;
14088;SDS011;7120;52.890;6.040;2022-11-14T16:51:13;16.33;;;14.63;;
14088;SDS011;7120;52.890;6.040;2022-11-14T16:53:38;17.47;;;15.53;;
14088;SDS011;7120;52.890;6.040;2022-11-14T16:56:04;17.83;;;15.90;;
14088;SDS011;7120;52.890;6.040;2022-11-14T16:58:29;16.10;;;14.50;;
14088;SDS011;7120;52.890;6.040;2022-11-14T17:00:55;17.80;;;15.90;;